Time;durP1;ratioP1;P1;durP2;ratioP2;P2;SDS_P1;SDS_P2;PMS_P1;PMS_P2;Temp;Humidity;BMP_temperature;BMP_pressure;BME280_temperature;BME280_humidity;BME280_pressure;Samples;Min_cycle;Max_cycle;Signal;HPM_P1;HPM_P2
2022/02/11 00:02:17;;;;;;;6.57;2.80;;;;;;;-145.69;100.00;72510.91;5092535;28;20220;-77
2022/02/11 00:07:30;;;;;;;6.43;2.77;;;;;;;-145.69;100.00;72512.91;5091970;28;20213;-77
2022/02/11 00:10:00;;;;;;;9.77;2.50;;;;;;;-145.69;100.00;72524.84;5092874;28;20285;-77
2022/02/11 00:12:28;;;;;;;7.13;2.73;;;;;;;-145.69;100.00;72504.94;5111674;28;20204;-77
2022/02/11 00:15:03;;;;;;;6.87;2.60;;;;;;;-145.69;100.00;72516.88;5113414;28;20197;-77
2022/02/11 00:17:31;;;;;;;5.83;2.97;;;;;;;-145.69;100.00;72522.84;5115809;28;20235;-77
2022/02/11 00:19:58;;;;;;;5.80;2.87;;;;;;;-145.69;100.00;72516.88;5116927;28;20204;-78
2022/02/11 00:22:25;;;;;;;7.87;3.10;;;;;;;-145.69;100.00;72504.94;5117186;28;20197;-77
2022/02/11 00:24:54;;;;;;;5.47;2.60;;;;;;;-145.69;100.00;72506.91;5115774;28;20572;-77
2022/02/11 00:30:33;;;;;;;4.90;2.53;;;;;;;-145.69;100.00;72498.97;5093824;28;20200;-76
2022/02/11 00:33:07;;;;;;;6.87;2.53;;;;;;;-145.69;100.00;72496.97;5096333;28;20202;-77
2022/02/11 00:35:40;;;;;;;5.00;2.50;;;;;;;-145.69;100.00;72498.97;5096276;28;20202;-77
2022/02/11 00:38:13;;;;;;;5.47;2.20;;;;;;;-145.69;100.00;72494.97;5096410;28;20325;-77
2022/02/11 00:41:21;;;;;;;6.27;2.40;;;;;;;-145.69;100.00;72494.97;5096839;28;20710;-77
2022/02/11 00:46:45;;;;;;;3.53;2.10;;;;;;;-145.69;100.00;72489.00;5103018;28;20194;-77
2022/02/11 01:03:22;;;;;;;6.67;2.10;;;;;;;-145.69;100.00;72552.69;5013669;28;20251;-77
2022/02/11 01:05:48;;;;;;;4.70;2.17;;;;;;;-145.69;100.00;72548.72;5013428;28;20212;-77
2022/02/11 01:08:15;;;;;;;4.70;2.33;;;;;;;-145.69;100.00;72562.66;5052984;28;20206;-77
2022/02/11 01:10:43;;;;;;;5.10;2.63;;;;;;;-145.69;100.00;72562.66;5095787;28;20198;-78
2022/02/11 01:13:12;;;;;;;4.83;2.90;;;;;;;-145.69;100.00;72572.59;5095457;28;20237;-77
2022/02/11 01:15:46;;;;;;;8.07;3.00;;;;;;;-145.69;100.00;72572.59;5095786;28;20201;-78
2022/02/11 01:18:14;;;;;;;9.77;2.80;;;;;;;-145.69;100.00;72588.53;5095765;28;20235;-77
2022/02/11 01:20:47;;;;;;;6.37;3.30;;;;;;;-145.69;100.00;72580.56;5095748;28;20563;-77
2022/02/11 01:23:27;;;;;;;7.40;2.80;;;;;;;-145.69;100.00;72590.53;5095442;28;20198;-77
2022/02/11 01:26:13;;;;;;;8.07;3.30;;;;;;;-145.69;100.00;72600.47;5095548;28;20233;-77
2022/02/11 01:29:01;;;;;;;5.33;3.20;;;;;;;-145.69;100.00;72606.44;5095140;28;20255;-77
2022/02/11 01:31:45;;;;;;;6.93;3.30;;;;;;;-145.69;100.00;72608.44;5103503;28;20618;-77
2022/02/11 01:34:33;;;;;;;9.30;3.50;;;;;;;-145.69;100.00;72612.41;5112451;28;20364;-77
2022/02/11 01:37:19;;;;;;;8.17;3.50;;;;;;;-145.69;100.00;72618.38;5115284;28;20221;-78
2022/02/11 01:51:16;;;;;;;7.57;4.20;;;;;;;-145.69;100.00;72644.25;5083954;28;20197;-78
2022/02/11 01:53:49;;;;;;;9.57;4.17;;;;;;;-145.69;100.00;72650.22;5115326;28;20236;-77
2022/02/11 01:56:37;;;;;;;12.40;4.97;;;;;;;-145.69;100.00;72652.22;5115513;28;20767;-78
2022/02/11 02:05:14;;;;;;;10.37;5.40;;;;;;;-145.69;100.00;72662.19;5115343;28;20189;-77
2022/02/11 02:13:47;;;;;;;10.70;5.70;;;;;;;-145.69;100.00;72666.16;5111154;28;20552;-78
2022/02/11 02:22:08;;;;;;;10.20;6.13;;;;;;;-145.69;100.00;72682.09;5113272;28;20203;-78
2022/02/11 02:24:57;;;;;;;10.40;5.27;;;;;;;-145.69;100.00;72682.09;5115014;28;20204;-78
2022/02/11 02:57:53;;;;;;;13.63;5.83;;;;;;;-145.69;100.00;72729.84;5093678;28;20908;-77
2022/02/11 03:17:47;;;;;;;9.30;4.17;;;;;;;-145.69;100.00;72769.66;5030931;28;20551;-77
2022/02/11 03:50:32;;;;;;;6.67;3.27;;;;;;;-145.69;100.00;72887.09;5113143;28;20197;-77
2022/02/11 03:56:25;;;;;;;4.23;2.90;;;;;;;-145.69;100.00;72903.03;5112581;28;20235;-78
2022/02/11 03:59:35;;;;;;;6.87;3.43;;;;;;;-145.69;100.00;72899.06;5112859;28;20257;-78
2022/02/11 04:22:05;;;;;;;8.47;3.83;;;;;;;-145.69;100.00;72962.75;5092501;28;20205;-78
2022/02/11 04:55:03;;;;;;;3.07;2.13;;;;;;;-145.69;100.00;73038.41;5112587;28;20208;-77
2022/02/11 05:00:15;;;;;;;7.73;2.97;;;;;;;-145.69;100.00;73050.34;5102969;28;20192;-76
2022/02/11 05:02:42;;;;;;;5.40;2.40;;;;;;;-145.69;100.00;73058.31;5093507;28;20213;-76
2022/02/11 05:05:09;;;;;;;3.13;2.00;;;;;;;-145.69;100.00;73074.22;5096047;28;20205;-76
2022/02/11 05:07:36;;;;;;;7.07;2.63;;;;;;;-145.69;100.00;73086.19;5095670;28;20656;-76
2022/02/11 05:10:07;;;;;;;3.70;1.73;;;;;;;-145.69;100.00;73084.19;5095538;28;20212;-75
2022/02/11 05:12:34;;;;;;;2.97;1.80;;;;;;;-145.69;100.00;73108.06;5095972;28;20198;-75
2022/02/11 05:15:00;;;;;;;2.43;1.60;;;;;;;-145.69;100.00;73135.94;5095631;28;20247;-75
2022/02/11 05:17:27;;;;;;;2.37;1.70;;;;;;;-145.69;100.00;73157.84;5095371;28;20205;-75
2022/02/11 05:19:53;;;;;;;2.07;1.70;;;;;;;-145.69;100.00;73171.78;5095805;28;20198;-75
2022/02/11 05:22:20;;;;;;;1.83;1.30;;;;;;;-145.69;100.00;73181.72;5095621;28;20194;-74
2022/02/11 05:24:46;;;;;;;1.87;1.37;;;;;;;-145.69;100.00;73195.66;5095659;28;20198;-75
2022/02/11 05:27:14;;;;;;;1.60;1.30;;;;;;;-145.69;100.00;73207.59;5094997;28;20205;-75
2022/02/11 05:29:43;;;;;;;2.00;1.07;;;;;;;-145.69;100.00;73237.47;5099635;28;20660;-77
2022/02/11 05:32:09;;;;;;;1.83;1.17;;;;;;;-145.69;100.00;73245.44;5116061;28;20205;-75
2022/02/11 05:34:36;;;;;;;1.17;1.07;;;;;;;-145.69;100.00;73257.38;5110878;28;20209;-75
2022/02/11 05:37:02;;;;;;;0.90;0.90;;;;;;;-145.69;100.00;73273.31;5115371;28;20201;-74
2022/02/11 05:39:29;;;;;;;1.10;1.00;;;;;;;-145.69;100.00;73285.25;5115578;28;20240;-75
2022/02/11 05:41:55;;;;;;;1.10;1.00;;;;;;;-145.69;100.00;73293.22;5115592;28;20197;-74
2022/02/11 05:44:24;;;;;;;0.97;0.90;;;;;;;-145.69;100.00;73307.16;5115111;28;20201;-75
2022/02/11 05:46:50;;;;;;;3.20;1.17;;;;;;;-145.69;100.00;73309.13;5115705;28;20231;-75
2022/02/11 05:49:17;;;;;;;1.50;1.30;;;;;;;-145.69;100.00;73309.13;5115633;28;20197;-77
2022/02/11 05:51:44;;;;;;;2.00;1.30;;;;;;;-145.69;100.00;73323.06;5115380;28;20229;-76
2022/02/11 05:54:10;;;;;;;2.17;1.40;;;;;;;-145.69;100.00;73325.06;5114888;28;20575;-76
2022/02/11 05:56:36;;;;;;;1.50;1.33;;;;;;;-145.69;100.00;73329.03;5115337;28;20714;-77
2022/02/11 05:59:03;;;;;;;1.50;1.40;;;;;;;-145.69;100.00;73333.03;5113153;28;20826;-76
2022/02/11 06:01:31;;;;;;;1.53;1.37;;;;;;;-145.69;100.00;73335.03;5094752;28;20205;-76
2022/02/11 06:03:57;;;;;;;2.63;1.70;;;;;;;-145.69;100.00;73337.00;5094752;28;20649;-76
2022/02/11 06:06:24;;;;;;;2.10;1.90;;;;;;;-145.69;100.00;73341.00;5094505;28;20588;-76
2022/02/11 06:08:50;;;;;;;2.80;2.17;;;;;;;-145.69;100.00;73348.97;5094275;28;20717;-75
2022/02/11 06:11:17;;;;;;;3.20;2.30;;;;;;;-145.69;100.00;73360.91;5094862;28;20193;-75
2022/02/11 06:13:43;;;;;;;3.00;2.23;;;;;;;-145.69;100.00;73352.94;5094659;28;20198;-76
2022/02/11 06:16:10;;;;;;;3.97;2.43;;;;;;;-145.69;100.00;73364.88;5094685;28;20201;-76
2022/02/11 06:18:37;;;;;;;4.40;2.57;;;;;;;-145.69;100.00;73376.81;5094504;28;20251;-76
2022/02/11 06:21:04;;;;;;;4.68;3.47;;;;;;;-145.69;100.00;73384.78;5092820;28;20433;-75
2022/02/11 06:23:31;;;;;;;6.33;2.97;;;;;;;-145.69;100.00;73394.75;5093939;28;20198;-76
2022/02/11 06:25:59;;;;;;;4.37;2.80;;;;;;;-145.69;100.00;73402.72;5094519;28;20292;-76
2022/02/11 06:28:26;;;;;;;7.70;3.47;;;;;;;-145.69;100.00;73400.72;5094178;28;20202;-75
2022/02/11 06:30:52;;;;;;;5.53;3.37;;;;;;;-145.69;100.00;73404.69;5110814;28;20193;-76
2022/02/11 06:33:19;;;;;;;8.10;3.43;;;;;;;-145.69;100.00;73416.66;5114624;28;20205;-76
2022/02/11 06:35:47;;;;;;;9.23;4.23;;;;;;;-145.69;100.00;73420.63;5114685;28;20614;-76
2022/02/11 06:38:14;;;;;;;7.87;4.00;;;;;;;-145.69;100.00;73432.56;5113990;28;20217;-76
2022/02/11 06:40:40;;;;;;;6.90;4.37;;;;;;;-145.69;100.00;73416.66;5114687;28;20201;-77
2022/02/11 06:43:07;;;;;;;6.07;3.97;;;;;;;-145.69;100.00;73432.56;5114003;28;20206;-76
2022/02/11 06:45:33;;;;;;;8.43;4.10;;;;;;;-145.69;100.00;73436.56;5114303;28;20205;-77
2022/02/11 06:48:01;;;;;;;8.33;4.37;;;;;;;-145.69;100.00;73442.53;5114314;28;20201;-76
2022/02/11 06:50:28;;;;;;;8.77;3.73;;;;;;;-145.69;100.00;73456.47;5113961;28;20207;-76
2022/02/11 06:52:56;;;;;;;8.07;4.27;;;;;;;-145.69;100.00;73460.44;5114389;28;20654;-76
2022/02/11 06:55:23;;;;;;;5.80;3.63;;;;;;;-145.69;100.00;73456.47;5113746;28;20234;-76
2022/02/11 06:57:49;;;;;;;7.37;3.90;;;;;;;-145.69;100.00;73472.38;5113664;28;20729;-76
2022/02/11 07:00:17;;;;;;;6.97;4.20;;;;;;;-145.69;100.00;73480.34;5099633;28;20214;-76
2022/02/11 07:02:44;;;;;;;7.07;4.03;;;;;;;-145.69;100.00;73488.31;5093660;28;20198;-76
2022/02/11 07:05:11;;;;;;;10.37;5.03;;;;;;;-145.69;100.00;73494.28;5092693;28;20684;-76
2022/02/11 07:07:37;;;;;;;6.67;3.30;;;;;;;-145.69;100.00;73504.25;5093816;28;20206;-76
2022/02/11 07:10:06;;;;;;;6.47;3.90;;;;;;;-145.69;100.00;73504.25;5093653;28;20202;-76
2022/02/11 07:12:33;;;;;;;8.03;4.40;;;;;;;-145.69;100.00;73510.22;5093498;28;20564;-76
2022/02/11 07:14:59;;;;;;;8.37;4.67;;;;;;;-145.69;100.00;73530.13;5093308;28;20201;-76
2022/02/11 07:17:26;;;;;;;9.97;4.93;;;;;;;-145.69;100.00;73532.13;5093533;28;20198;-76
2022/02/11 07:19:52;;;;;;;9.40;4.50;;;;;;;-145.69;100.00;73538.09;5093304;28;20237;-76
2022/02/11 07:22:19;;;;;;;9.47;5.00;;;;;;;-145.69;100.00;73534.09;5093266;28;20205;-76
2022/02/11 07:24:47;;;;;;;9.37;5.47;;;;;;;-145.69;100.00;73548.03;5093219;28;20202;-76
2022/02/11 07:27:15;;;;;;;11.53;6.10;;;;;;;-145.69;100.00;73552.03;5092416;28;20549;-76
2022/02/11 07:29:42;;;;;;;16.60;6.27;;;;;;;-145.69;100.00;73560.00;5102082;28;20199;-76
2022/02/11 07:32:10;;;;;;;13.13;6.73;;;;;;;-145.69;100.00;73560.00;5113140;28;20193;-77
2022/02/11 07:34:37;;;;;;;11.70;6.30;;;;;;;-145.69;100.00;73563.97;5110180;28;20209;-76
2022/02/11 07:37:04;;;;;;;15.07;6.53;;;;;;;-145.69;100.00;73567.94;5113837;28;20208;-76
2022/02/11 07:39:31;;;;;;;17.83;9.30;;;;;;;-145.69;100.00;73579.91;5113521;28;20225;-76
2022/02/11 07:41:57;;;;;;;14.67;8.00;;;;;;;-145.69;100.00;73587.88;5113653;28;20233;-77
2022/02/11 07:44:25;;;;;;;14.73;6.67;;;;;;;-145.69;100.00;73591.84;5113506;28;20204;-76
2022/02/11 07:46:51;;;;;;;11.93;6.17;;;;;;;-145.69;100.00;73593.84;5113314;28;20292;-77
2022/02/11 07:49:18;;;;;;;13.50;6.97;;;;;;;-145.69;100.00;73595.81;5113353;28;20592;-76
2022/02/11 07:51:46;;;;;;;13.00;6.47;;;;;;;-145.69;100.00;73609.75;5113446;28;20556;-77
2022/02/11 07:54:13;;;;;;;9.37;5.77;;;;;;;-145.69;100.00;73611.75;5113410;28;20243;-76
2022/02/11 07:56:39;;;;;;;11.93;6.47;;;;;;;-145.69;100.00;73623.69;5113288;28;20240;-76
2022/02/11 07:59:08;;;;;;;12.33;5.50;;;;;;;-145.69;100.00;73623.69;5106480;28;20221;-76
2022/02/11 08:01:36;;;;;;;11.07;5.90;;;;;;;-145.69;100.00;73643.59;5093107;28;20198;-76
2022/02/11 08:04:02;;;;;;;8.40;5.00;;;;;;;-145.69;100.00;73659.53;5093054;28;20194;-77
2022/02/11 08:06:29;;;;;;;10.53;5.07;;;;;;;-145.69;100.00;73661.53;5093067;28;20202;-76
2022/02/11 08:08:56;;;;;;;10.47;4.90;;;;;;;-145.69;100.00;73667.50;5092897;28;20210;-76
2022/02/11 08:11:23;;;;;;;9.43;4.90;;;;;;;-145.69;100.00;73683.44;5092828;28;20236;-77
2022/02/11 08:13:49;;;;;;;10.67;4.73;;;;;;;-145.69;100.00;73689.41;5092604;28;20248;-76
2022/02/11 08:16:16;;;;;;;7.77;4.50;;;;;;;-145.69;100.00;73697.38;5093786;28;20194;-77
2022/02/11 08:18:44;;;;;;;13.03;4.17;;;;;;;-145.69;100.00;73713.28;5092612;28;20271;-77
2022/02/11 08:21:10;;;;;;;11.00;4.07;;;;;;;-145.69;100.00;73721.25;5092764;28;20217;-77
2022/02/11 08:23:36;;;;;;;8.43;3.50;;;;;;;-145.69;100.00;73727.22;5092772;28;20194;-77
2022/02/11 08:26:04;;;;;;;6.33;3.10;;;;;;;-145.69;100.00;73727.22;5093867;28;20198;-77
2022/02/11 08:28:31;;;;;;;8.30;3.30;;;;;;;-145.69;100.00;73729.22;5092770;28;20275;-77
2022/02/11 08:30:58;;;;;;;6.63;3.23;;;;;;;-145.69;100.00;73733.19;5092585;28;20752;-77
2022/02/11 08:33:25;;;;;;;5.53;3.20;;;;;;;-145.69;100.00;73735.19;5109661;28;20229;-77
2022/02/11 08:35:55;;;;;;;7.23;3.60;;;;;;;-145.69;100.00;73735.19;5113138;28;20208;-77
2022/02/11 08:38:22;;;;;;;8.40;2.90;;;;;;;-145.69;100.00;73735.19;5114945;28;20222;-77
2022/02/11 08:40:49;;;;;;;6.97;2.93;;;;;;;-145.69;100.00;73743.16;5117083;28;20250;-77
2022/02/11 08:43:17;;;;;;;6.13;2.53;;;;;;;-145.69;100.00;73739.19;5117119;28;20204;-77
2022/02/11 08:45:43;;;;;;;6.50;2.93;;;;;;;-145.69;100.00;73735.19;5116933;28;20588;-78
2022/02/11 08:48:12;;;;;;;5.77;3.10;;;;;;;-145.69;100.00;73749.13;5117003;28;20202;-78
2022/02/11 08:50:40;;;;;;;5.97;2.90;;;;;;;-145.69;100.00;73749.13;5116888;28;20200;-78
2022/02/11 08:53:09;;;;;;;12.83;2.67;;;;;;;-145.69;100.00;73743.16;5116850;28;20193;-77
2022/02/11 08:55:36;;;;;;;9.73;2.77;;;;;;;-145.69;100.00;73743.16;5116616;28;20233;-77
2022/02/11 08:58:05;;;;;;;7.37;2.93;;;;;;;-145.69;100.00;73733.19;5116897;28;20205;-78
2022/02/11 09:00:32;;;;;;;7.72;3.20;;;;;;;-145.69;100.00;73739.19;5114641;28;20459;-78
2022/02/11 09:03:00;;;;;;;5.43;2.70;;;;;;;-145.69;100.00;73743.16;5116371;28;20706;-79
2022/02/11 09:05:28;;;;;;;7.60;3.30;;;;;;;-145.69;100.00;73747.13;5116536;28;20197;-78
2022/02/11 09:07:55;;;;;;;5.63;3.00;;;;;;;-145.69;100.00;73753.13;5116332;28;20590;-78
2022/02/11 09:10:26;;;;;;;6.50;3.30;;;;;;;-145.69;100.00;73749.13;5102169;28;20653;-78
2022/02/11 09:12:53;;;;;;;8.50;3.40;;;;;;;-145.69;100.00;73749.13;5096051;28;20198;-79
2022/02/11 09:15:21;;;;;;;8.33;3.80;;;;;;;-145.69;100.00;73747.13;5110831;28;20563;-79
2022/02/11 09:17:48;;;;;;;13.33;3.43;;;;;;;-145.69;100.00;73749.13;5116307;28;20617;-79
2022/02/11 09:20:15;;;;;;;6.30;3.23;;;;;;;-145.69;100.00;73747.13;5116053;28;20684;-77
2022/02/11 09:22:42;;;;;;;11.93;3.40;;;;;;;-145.69;100.00;73751.13;5116295;28;20284;-78
2022/02/11 09:25:10;;;;;;;5.13;2.87;;;;;;;-145.69;100.00;73759.09;5112690;28;20198;-78
2022/02/11 09:27:43;;;;;;;6.00;3.37;;;;;;;-145.69;100.00;73755.09;5116226;28;20201;-78
2022/02/11 09:30:12;;;;;;;8.10;3.20;;;;;;;-145.69;100.00;73755.09;5116179;28;20229;-78
2022/02/11 09:32:40;;;;;;;5.90;3.30;;;;;;;-145.69;100.00;73755.09;5115910;28;20250;-77
2022/02/11 09:35:10;;;;;;;9.47;3.23;;;;;;;-145.69;100.00;73745.16;5115851;28;20205;-78
2022/02/11 09:37:37;;;;;;;7.60;3.27;;;;;;;-145.69;100.00;73737.19;5115784;28;20735;-77
2022/02/11 09:40:04;;;;;;;12.57;3.63;;;;;;;-145.69;100.00;73727.22;5105156;28;20700;-77
2022/02/11 09:42:31;;;;;;;11.80;3.70;;;;;;;-145.69;100.00;73723.25;5095627;28;20576;-78
2022/02/11 09:45:00;;;;;;;13.97;2.93;;;;;;;-145.69;100.00;73735.19;5095412;28;20242;-78
2022/02/11 09:47:27;;;;;;;7.87;2.83;;;;;;;-145.69;100.00;73747.13;5095328;28;20206;-77
2022/02/11 09:49:54;;;;;;;8.63;2.90;;;;;;;-145.69;100.00;73727.22;5095087;28;20209;-78
2022/02/11 09:52:21;;;;;;;11.60;3.20;;;;;;;-145.69;100.00;73725.25;5095382;28;20206;-76
2022/02/11 09:54:48;;;;;;;9.40;3.20;;;;;;;-145.69;100.00;73699.34;5095225;28;20202;-80
2022/02/11 09:57:19;;;;;;;7.70;3.10;;;;;;;-145.69;100.00;73703.34;5095306;28;20197;-77
2022/02/11 09:59:46;;;;;;;7.83;3.03;;;;;;;-145.69;100.00;73695.38;5094818;28;20230;-76
2022/02/11 10:02:16;;;;;;;7.47;3.30;;;;;;;-145.69;100.00;73699.34;5095091;28;20202;-78
2022/02/11 10:04:55;;;;;;;6.70;3.13;;;;;;;-145.69;100.00;73685.41;5094806;28;20679;-79
2022/02/11 10:07:22;;;;;;;9.57;2.93;;;;;;;-145.69;100.00;73679.44;5095094;28;20229;-78
2022/02/11 10:09:49;;;;;;;8.47;2.87;;;;;;;-145.69;100.00;73689.41;5095149;28;20255;-77
2022/02/11 10:12:16;;;;;;;6.83;2.90;;;;;;;-145.69;100.00;73689.41;5094803;28;20198;-76
2022/02/11 10:14:43;;;;;;;6.97;2.10;;;;;;;-145.69;100.00;73685.41;5094615;28;20205;-78
2022/02/11 10:17:19;;;;;;;9.80;2.67;;;;;;;-145.69;100.00;73691.38;5094814;28;20248;-79
2022/02/11 10:19:50;;;;;;;9.40;2.47;;;;;;;-145.69;100.00;73693.38;5094558;28;20217;-76
2022/02/11 10:22:18;;;;;;;5.57;2.80;;;;;;;-145.69;100.00;73685.41;5111895;28;20215;-78
2022/02/11 10:24:46;;;;;;;6.80;2.80;;;;;;;-145.69;100.00;73695.38;5115043;28;20204;-77
2022/02/11 10:27:34;;;;;;;7.17;2.67;;;;;;;-145.69;100.00;73703.34;5114770;28;20201;-76
2022/02/11 10:30:05;;;;;;;4.17;2.27;;;;;;;-145.69;100.00;73697.38;5115067;28;20197;-76
2022/02/11 10:32:46;;;;;;;8.20;3.07;;;;;;;-145.69;100.00;73707.31;5114776;28;20197;-78
2022/02/11 10:35:14;;;;;;;5.00;2.83;;;;;;;-145.69;100.00;73687.41;5114725;28;20201;-79
2022/02/11 10:38:06;;;;;;;7.13;2.83;;;;;;;-145.69;100.00;73699.34;5114498;28;20193;-76
2022/02/11 10:40:35;;;;;;;11.03;3.17;;;;;;;-145.69;100.00;73699.34;5114061;28;20224;-76
2022/02/11 10:43:02;;;;;;;6.33;3.33;;;;;;;-145.69;100.00;73671.47;5114689;28;20202;-76
2022/02/11 10:45:31;;;;;;;7.27;2.67;;;;;;;-145.69;100.00;73677.47;5114551;28;20205;-76
2022/02/11 10:48:23;;;;;;;6.10;3.20;;;;;;;-145.69;100.00;73683.44;5114180;28;20224;-77
2022/02/11 10:50:54;;;;;;;9.80;3.00;;;;;;;-145.69;100.00;73689.41;5109849;28;20201;-77
2022/02/11 10:53:23;;;;;;;5.67;2.80;;;;;;;-145.69;99.64;73701.34;5114482;28;20197;-77
2022/02/11 10:55:51;;;;;;;8.77;2.80;;;;;;;-145.69;100.00;73687.41;5114356;28;20750;-77
2022/02/11 10:58:19;;;;;;;4.40;2.90;;;;;;;-145.69;100.00;73663.53;5114095;28;20205;-77
2022/02/11 11:00:46;;;;;;;5.00;2.97;;;;;;;-145.69;100.00;73665.50;5113635;28;20229;-77
2022/02/11 11:03:13;;;;;;;8.70;3.10;;;;;;;-145.69;100.00;73667.50;5107420;28;20195;-77
2022/02/11 11:05:43;;;;;;;8.67;2.87;;;;;;;-145.69;100.00;73683.44;5104058;28;20660;-77
2022/02/11 11:08:12;;;;;;;7.87;3.03;;;;;;;-145.69;100.00;73673.47;5113645;28;20560;-76
2022/02/11 11:10:41;;;;;;;4.60;2.33;;;;;;;-145.69;100.00;73663.53;5113949;28;20208;-77
2022/02/11 11:13:11;;;;;;;10.33;2.57;;;;;;;-145.69;100.00;73631.66;5114145;28;20628;-77
2022/02/11 11:15:39;;;;;;;7.90;2.80;;;;;;;-145.69;100.00;73583.88;5113997;28;20205;-77
2022/02/11 11:18:07;;;;;;;9.03;2.43;;;;;;;-145.69;90.28;73597.81;5110457;28;20204;-77
2022/02/11 11:20:35;;;;;;;10.70;2.37;;;;;;;-145.69;94.81;73597.81;5113910;28;20666;-77
2022/02/11 11:23:10;;;;;;;6.43;2.20;;;;;;;-145.69;97.76;73611.75;5112217;28;20766;-76
2022/02/11 11:26:02;;;;;;;6.43;1.97;;;;;;;-145.69;94.25;73651.56;5093091;28;20206;-78
2022/02/11 11:28:42;;;;;;;4.80;2.20;;;;;;;-145.69;92.80;73659.53;5093260;28;20868;-78
2022/02/11 11:31:11;;;;;;;6.93;1.90;;;;;;;-145.69;95.08;73639.63;5093308;28;20217;-78
2022/02/11 11:33:38;;;;;;;2.93;2.07;;;;;;;-145.69;94.25;73615.72;5101889;28;20227;-78
2022/02/11 11:36:10;;;;;;;6.83;2.10;;;;;;;-145.69;92.51;73607.78;5113588;28;20201;-77
2022/02/11 11:38:49;;;;;;;5.80;2.03;;;;;;;-145.69;93.99;73583.88;5113362;28;20663;-77
2022/02/11 11:41:19;;;;;;;7.67;2.30;;;;;;;-145.69;94.45;73569.94;5113625;28;20335;-78
2022/02/11 11:43:49;;;;;;;6.80;2.13;;;;;;;-145.69;94.96;73595.81;5113382;28;20281;-78
2022/02/11 11:46:34;;;;;;;5.87;2.20;;;;;;;-145.69;92.00;73617.72;5113334;28;20204;-78
2022/02/11 11:49:04;;;;;;;4.83;1.70;;;;;;;-145.69;91.97;73629.66;5113266;28;20197;-78
2022/02/11 11:51:52;;;;;;;6.03;2.13;;;;;;;-145.69;95.97;73625.69;5113481;28;20290;-78
2022/02/11 11:54:24;;;;;;;5.57;2.00;;;;;;;-145.69;93.24;73607.78;5113278;28;20231;-77
2022/02/11 11:56:55;;;;;;;7.13;1.87;;;;;;;-145.69;92.45;73595.81;5113260;28;20229;-77
2022/02/11 11:59:26;;;;;;;2.00;1.37;;;;;;;-145.69;85.07;73597.81;5113543;28;20193;-77
2022/02/11 12:01:58;;;;;;;6.20;2.10;;;;;;;-145.69;88.36;73617.72;5113632;28;20208;-78
2022/02/11 12:04:26;;;;;;;5.40;2.50;;;;;;;-145.69;89.64;73615.72;5107496;28;20189;-77
2022/02/11 12:06:54;;;;;;;4.10;2.03;;;;;;;-145.69;91.25;73623.69;5113361;28;20228;-77
2022/02/11 12:09:22;;;;;;;8.43;2.10;;;;;;;-145.69;90.76;73631.66;5112857;28;20855;-77
2022/02/11 12:11:53;;;;;;;8.37;1.77;;;;;;;-145.69;91.54;73619.72;5114516;28;20197;-78
2022/02/11 12:14:19;;;;;;;8.00;1.77;;;;;;;-145.69;89.80;73571.94;5117515;28;20254;-78
2022/02/11 12:16:46;;;;;;;3.63;1.87;;;;;;;-145.69;87.68;73534.09;5117405;28;20670;-78
2022/02/11 12:19:13;;;;;;;12.67;4.20;;;;;;;-145.69;86.61;73528.13;5117486;28;20204;-78
2022/02/11 12:21:40;;;;;;;6.43;1.70;;;;;;;-145.69;84.71;73544.06;5117069;28;20644;-77
2022/02/11 12:29:37;;;;;;;10.17;1.60;;;;;;;-145.69;88.99;73546.06;5117258;28;20670;-78
2022/02/11 12:32:04;;;;;;;9.83;1.93;;;;;;;-145.69;86.92;73552.03;5117067;28;20198;-78
2022/02/11 12:34:30;;;;;;;3.67;1.43;;;;;;;-145.69;88.63;73522.16;5098133;28;20190;-78
2022/02/11 12:37:07;;;;;;;4.97;1.63;;;;;;;-145.69;88.38;73504.25;5096446;28;20653;-78
2022/02/11 12:39:34;;;;;;;11.40;2.50;;;;;;;-145.69;88.96;73498.28;5096150;28;20556;-79
2022/02/11 12:42:02;;;;;;;8.40;1.93;;;;;;;-145.69;88.36;73484.34;5096647;28;20230;-78
2022/02/11 12:44:30;;;;;;;3.10;1.60;;;;;;;-145.69;90.62;73573.94;5096341;28;20197;-79
2022/02/11 12:47:00;;;;;;;3.97;1.60;;;;;;;-145.69;93.31;73607.78;5096606;28;20198;-78
2022/02/11 12:49:29;;;;;;;4.43;1.80;;;;;;;-145.69;95.21;73607.78;5096469;28;20229;-78
2022/02/11 12:51:58;;;;;;;5.10;1.50;;;;;;;-145.69;92.73;73619.72;5096315;28;20202;-79
2022/02/11 12:54:25;;;;;;;13.17;2.20;;;;;;;-145.69;97.06;73635.66;5096134;28;20209;-79
2022/02/11 12:57:01;;;;;;;8.93;1.90;;;;;;;-145.69;95.16;73623.69;5096033;28;20253;-77
2022/02/11 12:59:29;;;;;;;4.27;1.73;;;;;;;-145.69;95.23;73619.72;5096380;28;20221;-78
2022/02/11 13:01:56;;;;;;;4.30;1.57;;;;;;;-145.69;92.75;73639.63;5096122;28;20229;-77
2022/02/11 13:04:22;;;;;;;10.30;1.90;;;;;;;-145.69;94.61;73635.66;5111069;28;20194;-79
2022/02/11 13:06:49;;;;;;;5.47;1.67;;;;;;;-145.69;92.71;73623.69;5116639;28;20246;-77
2022/02/11 13:09:18;;;;;;;3.17;1.23;;;;;;;-145.69;89.05;73607.78;5116344;28;20197;-79
2022/02/11 13:11:45;;;;;;;9.47;2.60;;;;;;;-145.69;89.02;73591.84;5112899;28;20205;-77
2022/02/11 13:14:12;;;;;;;7.03;1.73;;;;;;;-145.69;86.95;73599.81;5116399;28;20202;-78
2022/02/11 13:16:40;;;;;;;3.70;1.67;;;;;;;-145.69;89.02;73585.88;5116475;28;20193;-77
2022/02/11 13:19:13;;;;;;;3.73;1.90;;;;;;;-145.69;88.54;73581.88;5116327;28;20201;-77
2022/02/11 13:21:40;;;;;;;4.77;2.33;;;;;;;-145.69;90.48;73565.97;5116140;28;20569;-77
2022/02/11 13:24:07;;;;;;;7.70;2.23;;;;;;;-145.69;90.98;73579.91;5115336;28;20610;-77
2022/02/11 13:26:34;;;;;;;5.90;1.90;;;;;;;-145.69;89.18;73563.97;5116221;28;20197;-77
2022/02/11 13:29:01;;;;;;;9.60;2.37;;;;;;;-145.69;87.74;73573.94;5115218;28;20205;-79
2022/02/11 13:31:29;;;;;;;7.07;2.33;;;;;;;-145.69;89.47;73601.81;5116119;28;20197;-76
2022/02/11 13:34:06;;;;;;;9.00;2.17;;;;;;;-145.69;89.24;73595.81;5099716;28;20247;-76
2022/02/11 13:36:33;;;;;;;4.50;1.67;;;;;;;-145.69;90.08;73621.72;5095432;28;20205;-76
2022/02/11 13:39:01;;;;;;;5.60;2.17;;;;;;;-145.69;92.20;73643.59;5095824;28;20637;-77
2022/02/11 13:41:29;;;;;;;10.30;2.20;;;;;;;-145.69;91.01;73627.69;5095476;28;20229;-77
2022/02/11 13:43:59;;;;;;;7.53;2.13;;;;;;;-145.69;94.87;73619.72;5095429;28;20202;-77
2022/02/11 13:46:26;;;;;;;5.67;2.00;;;;;;;-145.69;94.93;73599.81;5095323;28;20202;-76
2022/02/11 13:48:55;;;;;;;19.73;5.60;;;;;;;-145.69;90.42;73621.72;5095112;28;20267;-76
2022/02/11 13:51:23;;;;;;;6.73;2.80;;;;;;;-145.69;95.41;73609.75;5095069;28;20679;-78
2022/02/11 13:53:52;;;;;;;13.63;3.27;;;;;;;-145.69;88.95;73643.59;5095100;28;20255;-76
2022/02/11 13:56:22;;;;;;;4.43;1.60;;;;;;;-145.69;90.21;73639.63;5094937;28;20225;-80
2022/02/11 13:59:06;;;;;;;5.20;2.07;;;;;;;-145.69;91.11;73635.66;5095068;28;20198;-78
2022/02/11 14:01:35;;;;;;;8.17;3.63;;;;;;;-145.69;89.86;73633.66;5094868;28;20308;-78
2022/02/11 14:04:04;;;;;;;5.30;2.20;;;;;;;-145.69;90.40;73599.81;5110655;28;20297;-78
2022/02/11 14:06:36;;;;;;;6.67;2.00;;;;;;;-145.69;90.33;73603.78;5097657;28;20199;-79
2022/02/11 14:09:07;;;;;;;9.20;3.20;;;;;;;-145.69;91.04;73581.88;5094869;28;20480;-78
2022/02/11 14:11:37;;;;;;;8.57;3.10;;;;;;;-145.69;90.47;73591.84;5094846;28;20201;-79
2022/02/11 14:14:17;;;;;;;10.70;2.90;;;;;;;-145.69;92.61;73591.84;5095021;28;20251;-78
2022/02/11 14:16:46;;;;;;;5.23;2.17;;;;;;;-145.69;90.93;73575.91;5094638;28;20548;-78
2022/02/11 14:19:24;;;;;;;5.07;2.40;;;;;;;-145.69;89.69;73603.78;5094804;28;20210;-80
2022/02/11 14:21:52;;;;;;;2.90;1.63;;;;;;;-145.69;89.54;73595.81;5094449;28;20237;-80
2022/02/11 14:24:20;;;;;;;3.27;2.00;;;;;;;-145.69;89.95;73583.88;5094690;28;20202;-79
2022/02/11 14:26:46;;;;;;;12.43;4.60;;;;;;;-145.69;89.98;73556.00;5094566;28;20206;-78
2022/02/11 14:29:15;;;;;;;9.77;2.00;;;;;;;-145.69;83.67;73546.06;5094569;28;20569;-79
2022/02/11 14:31:43;;;;;;;5.67;2.40;;;;;;;-145.69;81.67;73245.44;5094524;28;20204;-76
2022/02/11 14:34:10;;;;;;;5.37;2.13;;;;;;;-145.69;63.92;73008.53;5108455;28;20285;-77